Time,TemperatureF,DewpointF,PressureIn,WindDirection,WindDirectionDegrees,WindSpeedMPH,WindSpeedGustMPH,Humidity,HourlyPrecipIn,Conditions,Clouds,dailyrainin,SoftwareType,DateUTC
2013-04-22 00:02:00,50.9,34.8,30.18,SSE,157,0.0,0.0,54,0.00,,,0.00,WUHU21623XXSP,2013-04-22 05:02:00,
2013-04-22 00:07:00,50.7,34.6,30.18,SSE,157,0.0,0.0,54,0.00,,,0.00,WUHU21623XXSP,2013-04-22 05:07:00,
2013-04-22 00:12:00,50.7,35.1,30.18,SSE,157,0.0,0.0,55,0.00,,,0.00,WUHU21623XXSP,2013-04-22 05:12:00,
2013-04-22 00:17:00,50.5,34.9,30.18,SSE,157,0.0,0.0,55,0.00,,,0.00,WUHU21623XXSP,2013-04-22 05:17:00,
2013-04-22 00:22:00,50.5,34.9,30.19,SSE,157,0.0,0.0,55,0.00,,,0.00,WUHU21623XXSP,2013-04-22 05:22:00,
2013-04-22 00:27:00,50.5,34.9,30.19,SSE,157,0.0,0.0,55,0.00,,,0.00,WUHU21623XXSP,2013-04-22 05:27:00,
2013-04-22 00:32:00,50.5,35.4,30.19,SSE,157,0.0,0.0,56,0.00,,,0.00,WUHU21623XXSP,2013-04-22 05:32:00,
2013-04-22 00:37:00,50.5,35.4,30.19,SSE,157,0.0,0.0,56,0.00,,,0.00,WUHU21623XXSP,2013-04-22 05:37:00,
2013-04-22 00:42:00,50.5,35.4,30.19,SSE,157,0.0,0.0,56,0.00,,,0.00,WUHU21623XXSP,2013-04-22 05:42:00,
2013-04-22 00:47:00,50.4,35.2,30.19,SSE,157,0.0,0.0,56,0.00,,,0.00,WUHU21623XXSP,2013-04-22 05:47:00,
2013-04-22 00:52:00,50.2,35.0,30.19,SSE,157,0.0,0.0,56,0.00,,,0.00,WUHU21623XXSP,2013-04-22 05:52:00,
2013-04-22 00:57:00,50.2,35.0,30.19,SSE,157,0.0,0.0,56,0.00,,,0.00,WUHU21623XXSP,2013-04-22 05:57:00,
2013-04-22 01:02:00,49.6,34.5,30.19,SSE,157,0.0,0.0,56,0.00,,,0.00,WUHU21623XXSP,2013-04-22 06:02:00,
2013-04-22 01:07:00,49.5,34.4,30.19,SSE,157,0.0,0.0,56,0.00,,,0.00,WUHU21623XXSP,2013-04-22 06:07:00,
2013-04-22 01:12:00,49.3,34.2,30.19,SSE,157,0.0,0.0,56,0.00,,,0.00,WUHU21623XXSP,2013-04-22 06:12:00,
2013-04-22 01:17:00,48.7,34.1,30.18,SSE,157,0.0,0.0,57,0.00,,,0.00,WUHU21623XXSP,2013-04-22 06:17:00,
2013-04-22 01:22:00,48.7,34.1,30.18,SSE,157,0.0,0.0,57,0.00,,,0.00,WUHU21623XXSP,2013-04-22 06:22:00,
2013-04-22 01:27:00,48.4,34.3,30.18,SSE,157,0.0,0.0,58,0.00,,,0.00,WUHU21623XXSP,2013-04-22 06:27:00,
2013-04-22 01:32:00,48.0,33.9,30.18,SSE,157,0.0,0.0,58,0.00,,,0.00,WUHU21623XXSP,2013-04-22 06:32:00,
2013-04-22 01:37:00,47.8,34.2,30.18,SSE,157,0.0,0.0,59,0.00,,,0.00,WUHU21623XXSP,2013-04-22 06:37:00,
2013-04-22 01:42:00,47.8,34.2,30.18,SSE,157,0.0,0.0,59,0.00,,,0.00,WUHU21623XXSP,2013-04-22 06:42:00,
2013-04-22 01:47:00,47.7,34.1,30.18,SSE,157,0.0,0.0,59,0.00,,,0.00,WUHU21623XXSP,2013-04-22 06:47:00,
2013-04-22 01:52:00,47.3,33.7,30.18,SSE,157,0.0,0.0,59,0.00,,,0.00,WUHU21623XXSP,2013-04-22 06:52:00,
2013-04-22 01:57:00,47.3,34.2,30.18,SSE,157,0.0,0.0,60,0.00,,,0.00,WUHU21623XXSP,2013-04-22 06:57:00,
2013-04-22 02:02:00,47.3,34.2,30.18,SSE,157,0.0,0.0,60,0.00,,,0.00,WUHU21623XXSP,2013-04-22 07:02:00,
2013-04-22 02:07:00,47.1,34.0,30.18,SSE,157,0.0,0.0,60,0.00,,,0.00,WUHU21623XXSP,2013-04-22 07:07:00,
2013-04-22 02:12:00,47.1,34.4,30.17,SSE,157,0.0,0.0,62,0.00,,,0.00,WUHU21623XXSP,2013-04-22 07:12:00,
2013-04-22 02:17:00,47.1,34.8,30.18,SSE,157,0.0,0.0,62,0.00,,,0.00,WUHU21623XXSP,2013-04-22 07:17:00,
2013-04-22 02:22:00,46.9,34.6,30.18,SSE,157,0.0,0.0,62,0.00,,,0.00,WUHU21623XXSP,2013-04-22 07:22:00,
2013-04-22 02:27:00,46.9,34.6,30.18,SSE,157,0.0,0.0,62,0.00,,,0.00,WUHU21623XXSP,2013-04-22 07:27:00,
2013-04-22 02:32:00,46.8,34.4,30.17,SSE,157,0.0,0.0,62,0.00,,,0.00,WUHU21623XXSP,2013-04-22 07:32:00,
2013-04-22 02:37:00,46.6,34.2,30.17,SSE,157,0.0,0.0,62,0.00,,,0.00,WUHU21623XXSP,2013-04-22 07:37:00,
2013-04-22 02:42:00,46.4,34.2,30.17,SSE,157,0.0,0.0,63,0.00,,,0.00,WUHU21623XXSP,2013-04-22 07:42:00,
2013-04-22 02:47:00,46.4,34.4,30.17,SSE,157,0.0,0.0,63,0.00,,,0.00,WUHU21623XXSP,2013-04-22 07:47:00,
2013-04-22 02:52:00,46.2,34.3,30.17,SSE,157,0.0,0.0,63,0.00,,,0.00,WUHU21623XXSP,2013-04-22 07:52:00,
2013-04-22 02:57:00,46.0,34.1,30.17,SSE,157,0.0,0.0,63,0.00,,,0.00,WUHU21623XXSP,2013-04-22 07:57:00,
2013-04-22 03:02:00,46.0,34.5,30.17,SSE,157,0.0,0.0,64,0.00,,,0.00,WUHU21623XXSP,2013-04-22 08:02:00,
2013-04-22 03:07:00,45.9,34.3,30.17,SSE,157,0.0,0.0,64,0.00,,,0.00,WUHU21623XXSP,2013-04-22 08:07:00,
2013-04-22 03:12:00,45.9,34.3,30.16,SSE,157,0.0,0.0,64,0.00,,,0.00,WUHU21623XXSP,2013-04-22 08:12:00,
2013-04-22 03:17:00,45.7,34.6,30.17,SSE,157,0.0,0.0,65,0.00,,,0.00,WUHU21623XXSP,2013-04-22 08:17:00,
2013-04-22 03:22:00,45.5,34.4,30.16,SSE,157,0.0,0.0,65,0.00,,,0.00,WUHU21623XXSP,2013-04-22 08:22:00,
2013-04-22 03:27:00,45.5,34.8,30.16,SSE,157,0.0,0.0,66,0.00,,,0.00,WUHU21623XXSP,2013-04-22 08:27:00,
2013-04-22 03:32:00,45.5,34.8,30.16,SSE,157,0.0,0.0,66,0.00,,,0.00,WUHU21623XXSP,2013-04-22 08:32:00,
2013-04-22 03:37:00,45.5,34.8,30.16,SSE,157,0.0,0.0,66,0.00,,,0.00,WUHU21623XXSP,2013-04-22 08:37:00,
2013-04-22 03:42:00,45.3,34.6,30.16,SSE,157,0.0,0.0,66,0.00,,,0.00,WUHU21623XXSP,2013-04-22 08:42:00,
2013-04-22 03:47:00,45.1,34.8,30.16,SSE,157,0.0,0.0,67,0.00,,,0.00,WUHU21623XXSP,2013-04-22 08:47:00,
2013-04-22 03:52:00,45.1,34.8,30.16,SSE,157,0.0,0.0,67,0.00,,,0.00,WUHU21623XXSP,2013-04-22 08:52:00,
2013-04-22 03:57:00,45.1,34.8,30.16,SSE,157,0.0,0.0,67,0.00,,,0.00,WUHU21623XXSP,2013-04-22 08:57:00,
2013-04-22 04:02:00,45.1,35.2,30.16,SSE,157,0.0,0.0,68,0.00,,,0.00,WUHU21623XXSP,2013-04-22 09:02:00,
2013-04-22 04:07:00,45.1,35.2,30.16,SSE,157,0.0,0.0,68,0.00,,,0.00,WUHU21623XXSP,2013-04-22 09:07:00,
2013-04-22 04:12:00,45.0,35.4,30.16,SSE,157,0.0,0.0,69,0.00,,,0.00,WUHU21623XXSP,2013-04-22 09:12:00,
2013-04-22 04:17:00,45.0,35.8,30.16,SSE,157,0.0,0.0,70,0.00,,,0.00,WUHU21623XXSP,2013-04-22 09:17:00,
2013-04-22 04:22:00,44.8,35.6,30.16,SSE,157,0.0,0.0,70,0.00,,,0.00,WUHU21623XXSP,2013-04-22 09:22:00,
2013-04-22 04:27:00,45.0,36.1,30.16,SSE,157,0.0,0.0,71,0.00,,,0.00,WUHU21623XXSP,2013-04-22 09:27:00,
2013-04-22 04:32:00,45.0,36.1,30.16,SSE,157,0.0,0.0,71,0.00,,,0.00,WUHU21623XXSP,2013-04-22 09:32:00,
2013-04-22 04:37:00,45.0,36.1,30.16,SSE,157,0.0,0.0,71,0.00,,,0.00,WUHU21623XXSP,2013-04-22 09:37:00,
2013-04-22 04:42:00,44.8,35.6,30.16,SSE,157,0.0,0.0,70,0.00,,,0.00,WUHU21623XXSP,2013-04-22 09:42:00,
2013-04-22 04:47:00,44.8,35.6,30.16,SSE,157,0.0,0.0,70,0.00,,,0.00,WUHU21623XXSP,2013-04-22 09:47:00,
2013-04-22 04:52:00,44.6,35.8,30.16,SSE,157,0.0,0.0,71,0.00,,,0.00,WUHU21623XXSP,2013-04-22 09:52:00,
2013-04-22 04:57:00,44.6,35.8,30.16,SSE,157,0.0,0.0,71,0.00,,,0.00,WUHU21623XXSP,2013-04-22 09:57:00,
2013-04-22 05:02:00,44.4,35.6,30.16,SSE,157,0.0,0.0,71,0.00,,,0.00,WUHU21623XXSP,2013-04-22 10:02:00,
2013-04-22 05:07:00,44.4,35.6,30.16,SSE,157,0.0,0.0,71,0.00,,,0.00,WUHU21623XXSP,2013-04-22 10:07:00,
2013-04-22 05:12:00,44.2,35.4,30.16,SSE,157,0.0,0.0,71,0.00,,,0.00,WUHU21623XXSP,2013-04-22 10:12:00,
2013-04-22 05:17:00,44.1,35.3,30.16,SSE,157,0.0,0.0,71,0.00,,,0.00,WUHU21623XXSP,2013-04-22 10:17:00,
2013-04-22 05:22:00,44.1,35.3,30.16,SSE,157,0.0,0.0,71,0.00,,,0.00,WUHU21623XXSP,2013-04-22 10:22:00,
2013-04-22 05:27:00,43.9,35.1,30.16,SSE,157,0.0,0.0,71,0.00,,,0.00,WUHU21623XXSP,2013-04-22 10:27:00,
2013-04-22 05:32:00,43.9,35.4,30.15,SSE,157,0.0,0.0,72,0.00,,,0.00,WUHU21623XXSP,2013-04-22 10:32:00,
2013-04-22 05:37:00,43.9,35.4,30.16,SSE,157,0.0,0.0,72,0.00,,,0.00,WUHU21623XXSP,2013-04-22 10:37:00,
2013-04-22 05:42:00,43.9,35.4,30.15,SSE,157,0.0,0.0,72,0.00,,,0.00,WUHU21623XXSP,2013-04-22 10:42:00,
2013-04-22 05:47:00,43.9,35.8,30.15,SSE,157,0.0,0.0,73,0.00,,,0.00,WUHU21623XXSP,2013-04-22 10:47:00,
2013-04-22 05:52:00,43.7,35.6,30.15,SSE,157,0.0,0.0,73,0.00,,,0.00,WUHU21623XXSP,2013-04-22 10:52:00,
2013-04-22 05:57:00,43.9,35.8,30.15,SSE,157,0.0,0.0,73,0.00,,,0.00,WUHU21623XXSP,2013-04-22 10:57:00,
2013-04-22 06:02:00,43.7,35.6,30.16,SSE,157,0.0,0.0,73,0.00,,,0.00,WUHU21623XXSP,2013-04-22 11:02:00,
2013-04-22 06:07:00,43.7,35.6,30.15,SSE,157,0.0,0.0,73,0.00,,,0.00,WUHU21623XXSP,2013-04-22 11:07:00,
2013-04-22 06:12:00,43.7,35.6,30.16,SSE,157,0.0,0.0,73,0.00,,,0.00,WUHU21623XXSP,2013-04-22 11:12:00,
2013-04-22 06:17:00,43.7,35.6,30.16,SSE,157,0.0,0.0,73,0.00,,,0.00,WUHU21623XXSP,2013-04-22 11:17:00,
2013-04-22 06:22:00,43.7,35.6,30.17,SSE,157,0.0,0.0,73,0.00,,,0.00,WUHU21623XXSP,2013-04-22 11:22:00,
2013-04-22 06:27:00,43.7,35.6,30.17,SSE,157,0.0,0.0,74,0.00,,,0.00,WUHU21623XXSP,2013-04-22 11:27:00,
2013-04-22 06:32:00,43.7,35.9,30.16,SSE,157,0.0,0.0,74,0.00,,,0.00,WUHU21623XXSP,2013-04-22 11:32:00,
2013-04-22 06:37:00,43.9,36.4,30.16,SSE,157,0.0,0.0,75,0.00,,,0.00,WUHU21623XXSP,2013-04-22 11:37:00,
2013-04-22 06:42:00,44.1,36.6,30.17,SSE,157,0.0,0.0,75,0.00,,,0.00,WUHU21623XXSP,2013-04-22 11:42:00,
2013-04-22 06:47:00,44.1,36.6,30.17,SSE,157,0.0,0.0,75,0.00,,,0.00,WUHU21623XXSP,2013-04-22 11:47:00,
2013-04-22 06:52:00,44.2,36.8,30.17,SSE,157,0.0,0.0,75,0.00,,,0.00,WUHU21623XXSP,2013-04-22 11:52:00,
2013-04-22 06:57:00,44.2,36.8,30.17,SSE,157,0.0,0.0,75,0.00,,,0.00,WUHU21623XXSP,2013-04-22 11:57:00,
2013-04-22 07:02:00,44.8,37.7,30.17,SE,135,1.8,1.8,76,0.00,,,0.00,WUHU21623XXSP,2013-04-22 12:02:00,
2013-04-22 07:07:00,45.0,38.2,30.16,SE,135,2.5,2.5,77,0.00,,,0.00,WUHU21623XXSP,2013-04-22 12:07:00,
2013-04-22 07:12:00,45.5,39.1,30.17,ESE,112,3.6,3.6,78,0.00,,,0.00,WUHU21623XXSP,2013-04-22 12:12:00,
2013-04-22 07:17:00,46.0,39.4,30.17,SE,135,4.7,4.7,78,0.00,,,0.00,WUHU21623XXSP,2013-04-22 12:17:00,
2013-04-22 07:22:00,46.9,40.8,30.17,SE,135,0.4,4.7,79,0.00,,,0.00,WUHU21623XXSP,2013-04-22 12:22:00,
2013-04-22 07:27:00,46.9,40.8,30.17,SE,135,0.4,1.6,79,0.00,,,0.00,WUHU21623XXSP,2013-04-22 12:27:00,
2013-04-22 07:32:00,47.8,41.3,30.17,ESE,112,3.6,3.6,78,0.00,,,0.00,WUHU21623XXSP,2013-04-22 12:32:00,
2013-04-22 07:37:00,48.9,42.3,30.17,ESE,112,3.6,3.6,78,0.00,,,0.00,WUHU21623XXSP,2013-04-22 12:37:00,
2013-04-22 07:42:00,49.6,43.0,30.17,SE,135,2.9,3.6,78,0.00,,,0.00,WUHU21623XXSP,2013-04-22 12:42:00,
2013-04-22 07:47:00,50.0,43.4,30.17,ESE,112,2.2,2.9,78,0.00,,,0.00,WUHU21623XXSP,2013-04-22 12:47:00,
2013-04-22 07:52:00,51.3,44.3,30.17,ESE,112,3.4,4.0,77,0.00,,,0.00,WUHU21623XXSP,2013-04-22 12:52:00,
2013-04-22 07:57:00,51.8,44.5,30.17,SE,135,6.0,6.0,76,0.00,,,0.00,WUHU21623XXSP,2013-04-22 12:57:00,
2013-04-22 08:02:00,52.3,45.0,30.17,ESE,112,3.6,6.0,76,0.00,,,0.00,WUHU21623XXSP,2013-04-22 13:02:00,
2013-04-22 08:07:00,52.5,44.5,30.17,SE,135,1.3,3.8,74,0.00,,,0.00,WUHU21623XXSP,2013-04-22 13:07:00,
2013-04-22 08:12:00,53.1,44.6,30.17,SE,135,4.9,4.9,73,0.00,,,0.00,WUHU21623XXSP,2013-04-22 13:12:00,
2013-04-22 08:17:00,53.1,44.6,30.17,ESE,112,3.8,4.9,72,0.00,,,0.00,WUHU21623XXSP,2013-04-22 13:17:00,
2013-04-22 08:22:00,54.0,45.1,30.17,ESE,112,6.0,6.0,72,0.00,,,0.00,WUHU21623XXSP,2013-04-22 13:22:00,
2013-04-22 08:27:00,54.3,45.5,30.18,ESE,112,6.5,7.2,72,0.00,,,0.00,WUHU21623XXSP,2013-04-22 13:27:00,
2013-04-22 08:32:00,55.0,45.8,30.18,SE,135,5.8,7.2,71,0.00,,,0.00,WUHU21623XXSP,2013-04-22 13:32:00,
2013-04-22 08:37:00,55.9,46.3,30.18,ESE,112,6.7,6.7,70,0.00,,,0.00,WUHU21623XXSP,2013-04-22 13:37:00,
2013-04-22 08:42:00,56.5,46.4,30.18,ESE,112,1.6,6.7,69,0.00,,,0.00,WUHU21623XXSP,2013-04-22 13:42:00,
2013-04-22 08:47:00,57.4,46.9,30.18,ESE,112,5.1,5.1,68,0.00,,,0.00,WUHU21623XXSP,2013-04-22 13:47:00,
2013-04-22 08:52:00,58.3,47.3,30.18,ESE,112,5.4,5.4,67,0.00,,,0.00,WUHU21623XXSP,2013-04-22 13:52:00,
2013-04-22 08:57:00,59.0,47.2,30.18,SE,135,8.1,8.1,65,0.00,,,0.00,WUHU21623XXSP,2013-04-22 13:57:00,
2013-04-22 09:02:00,59.5,47.3,30.18,East,90,3.8,8.1,64,0.00,,,0.00,WUHU21623XXSP,2013-04-22 14:02:00,
2013-04-22 09:07:00,60.3,46.8,30.18,ESE,112,5.6,7.2,61,0.00,,,0.00,WUHU21623XXSP,2013-04-22 14:07:00,
2013-04-22 09:12:00,60.8,47.4,30.18,ESE,112,3.6,7.2,61,0.00,,,0.00,WUHU21623XXSP,2013-04-22 14:12:00,
2013-04-22 09:17:00,61.2,47.3,30.18,ESE,112,5.1,6.3,60,0.00,,,0.00,WUHU21623XXSP,2013-04-22 14:17:00,
2013-04-22 09:22:00,61.7,46.3,30.18,ESE,112,8.1,8.1,57,0.00,,,0.00,WUHU21623XXSP,2013-04-22 14:22:00,
2013-04-22 09:27:00,62.1,46.6,30.19,ESE,112,6.5,8.1,57,0.00,,,0.00,WUHU21623XXSP,2013-04-22 14:27:00,
2013-04-22 09:32:00,63.0,47.4,30.19,South,180,0.0,8.7,57,0.00,,,0.00,WUHU21623XXSP,2013-04-22 14:32:00,
2013-04-22 09:37:00,63.3,47.8,30.19,SE,135,3.6,8.7,56,0.00,,,0.00,WUHU21623XXSP,2013-04-22 14:37:00,
2013-04-22 09:42:00,64.0,46.9,30.19,ESE,112,3.4,3.6,54,0.00,,,0.00,WUHU21623XXSP,2013-04-22 14:42:00,
2013-04-22 09:47:00,64.6,47.4,30.19,East,90,0.0,6.9,54,0.00,,,0.00,WUHU21623XXSP,2013-04-22 14:47:00,
2013-04-22 09:52:00,65.1,47.5,30.18,ESE,112,2.0,6.9,53,0.00,,,0.00,WUHU21623XXSP,2013-04-22 14:52:00,
2013-04-22 09:57:00,65.7,47.6,30.19,SE,135,1.6,4.3,52,0.00,,,0.00,WUHU21623XXSP,2013-04-22 14:57:00,
2013-04-22 10:02:00,66.6,48.4,30.19,East,90,3.4,6.0,52,0.00,,,0.00,WUHU21623XXSP,2013-04-22 15:02:00,
2013-04-22 10:07:00,66.9,48.3,30.19,SE,135,4.7,6.0,51,0.00,,,0.00,WUHU21623XXSP,2013-04-22 15:07:00,
2013-04-22 10:12:00,67.1,47.9,30.19,ESE,112,3.1,4.7,50,0.00,,,0.00,WUHU21623XXSP,2013-04-22 15:12:00,
2013-04-22 10:17:00,67.6,48.4,30.19,SE,135,5.4,5.4,50,0.00,,,0.00,WUHU21623XXSP,2013-04-22 15:17:00,
2013-04-22 10:22:00,68.2,48.9,30.19,ESE,112,9.4,9.4,50,0.00,,,0.00,WUHU21623XXSP,2013-04-22 15:22:00,
2013-04-22 10:27:00,68.7,49.4,30.19,SSE,157,3.6,9.4,50,0.00,,,0.00,WUHU21623XXSP,2013-04-22 15:27:00,
2013-04-22 10:32:00,69.4,48.3,30.19,ESE,112,8.5,8.5,47,0.00,,,0.00,WUHU21623XXSP,2013-04-22 15:32:00,
2013-04-22 10:37:00,69.6,48.4,30.18,SE,135,2.2,8.5,47,0.00,,,0.00,WUHU21623XXSP,2013-04-22 15:37:00,
2013-04-22 10:42:00,69.6,47.2,30.18,ESE,112,4.7,4.7,45,0.00,,,0.00,WUHU21623XXSP,2013-04-22 15:42:00,
2013-04-22 10:47:00,70.0,47.6,30.18,East,90,2.7,6.5,45,0.00,,,0.00,WUHU21623XXSP,2013-04-22 15:47:00,
2013-04-22 10:52:00,70.2,47.7,30.18,ESE,112,3.4,6.5,45,0.00,,,0.00,WUHU21623XXSP,2013-04-22 15:52:00,
2013-04-22 10:57:00,70.3,47.9,30.18,East,90,9.8,9.8,45,0.00,,,0.00,WUHU21623XXSP,2013-04-22 15:57:00,
2013-04-22 11:02:00,70.9,47.8,30.18,ESE,112,2.2,9.8,44,0.00,,,0.00,WUHU21623XXSP,2013-04-22 16:02:00,
2013-04-22 11:07:00,71.2,48.1,30.17,ESE,112,2.7,7.8,44,0.00,,,0.00,WUHU21623XXSP,2013-04-22 16:07:00,
2013-04-22 11:12:00,71.2,47.5,30.17,ESE,112,3.4,6.5,43,0.00,,,0.00,WUHU21623XXSP,2013-04-22 16:12:00,
2013-04-22 11:17:00,71.8,48.0,30.17,SW,225,1.8,4.5,43,0.00,,,0.00,WUHU21623XXSP,2013-04-22 16:17:00,
2013-04-22 11:22:00,72.0,48.1,30.17,WNW,292,2.5,4.5,43,0.00,,,0.00,WUHU21623XXSP,2013-04-22 16:22:00,
2013-04-22 11:27:00,72.1,47.7,30.16,ESE,112,1.8,7.2,42,0.00,,,0.00,WUHU21623XXSP,2013-04-22 16:27:00,
2013-04-22 11:32:00,72.7,48.2,30.16,ESE,112,1.6,9.6,42,0.00,,,0.00,WUHU21623XXSP,2013-04-22 16:32:00,
2013-04-22 11:37:00,73.0,48.5,30.16,ESE,112,6.9,9.6,42,0.00,,,0.00,WUHU21623XXSP,2013-04-22 16:37:00,
2013-04-22 11:42:00,73.6,48.4,30.16,ESE,112,4.5,8.9,41,0.00,,,0.00,WUHU21623XXSP,2013-04-22 16:42:00,
2013-04-22 11:47:00,73.8,48.6,30.16,SE,135,4.7,8.5,41,0.00,,,0.00,WUHU21623XXSP,2013-04-22 16:47:00,
2013-04-22 11:52:00,73.9,48.1,30.16,ESE,112,1.8,6.0,40,0.00,,,0.00,WUHU21623XXSP,2013-04-22 16:52:00,
2013-04-22 11:57:00,73.9,47.4,30.16,SE,135,1.3,6.0,39,0.00,,,0.00,WUHU21623XXSP,2013-04-22 16:57:00,
2013-04-22 12:02:00,74.1,47.6,30.16,East,90,0.4,7.2,39,0.00,,,0.00,WUHU21623XXSP,2013-04-22 17:02:00,
2013-04-22 12:07:00,74.1,46.8,30.16,South,180,2.7,7.2,38,0.00,,,0.00,WUHU21623XXSP,2013-04-22 17:07:00,
2013-04-22 12:12:00,74.1,46.8,30.15,ENE,67,3.4,3.4,40,0.00,,,0.00,WUHU21623XXSP,2013-04-22 17:12:00,
2013-04-22 12:17:00,74.7,47.3,30.15,ESE,112,6.7,6.7,38,0.00,,,0.00,WUHU21623XXSP,2013-04-22 17:17:00,
2013-04-22 12:22:00,74.8,47.4,30.15,SSE,157,5.1,6.7,38,0.00,,,0.00,WUHU21623XXSP,2013-04-22 17:22:00,
2013-04-22 12:26:00,75.2,47.8,30.15,South,180,5.8,5.8,38,0.00,,,0.00,WUHU21623XXSP,2013-04-22 17:26:00,
2013-04-22 12:31:00,75.6,48.1,30.15,ESE,112,3.8,5.8,38,0.00,,,0.00,WUHU21623XXSP,2013-04-22 17:31:00,
2013-04-22 12:36:00,75.6,47.3,30.15,SSW,202,1.6,8.5,37,0.00,,,0.00,WUHU21623XXSP,2013-04-22 17:36:00,
2013-04-22 12:41:00,75.6,46.6,30.15,SE,135,0.9,8.5,37,0.00,,,0.00,WUHU21623XXSP,2013-04-22 17:41:00,
2013-04-22 12:46:00,75.6,46.6,30.15,East,90,0.0,8.5,36,0.00,,,0.00,WUHU21623XXSP,2013-04-22 17:46:00,
2013-04-22 12:51:00,75.0,46.1,30.15,NW,315,3.1,8.5,36,0.00,,,0.00,WUHU21623XXSP,2013-04-22 17:51:00,
2013-04-22 12:56:00,74.7,45.8,30.14,SSW,202,2.7,7.6,36,0.00,,,0.00,WUHU21623XXSP,2013-04-22 17:56:00,
2013-04-22 13:01:00,74.5,45.6,30.14,WNW,292,2.9,4.5,36,0.00,,,0.00,WUHU21623XXSP,2013-04-22 18:01:00,
2013-04-22 13:06:00,74.7,46.5,30.14,ESE,112,2.5,4.5,37,0.00,,,0.00,WUHU21623XXSP,2013-04-22 18:06:00,
2013-04-22 13:11:00,75.4,47.2,30.13,SSE,157,5.1,5.1,37,0.00,,,0.00,WUHU21623XXSP,2013-04-22 18:11:00,
2013-04-22 13:16:00,75.6,47.3,30.12,East,90,1.1,5.1,37,0.00,,,0.00,WUHU21623XXSP,2013-04-22 18:16:00,
2013-04-22 13:21:00,75.9,47.7,30.12,WNW,292,0.0,5.1,37,0.00,,,0.00,WUHU21623XXSP,2013-04-22 18:21:00,
2013-04-22 13:26:00,76.1,46.3,30.12,South,180,0.4,7.4,35,0.00,,,0.00,WUHU21623XXSP,2013-04-22 18:26:00,
2013-04-22 13:31:00,76.1,46.3,30.12,SW,225,1.3,7.4,35,0.00,,,0.00,WUHU21623XXSP,2013-04-22 18:31:00,
2013-04-22 13:36:00,76.1,46.3,30.12,SE,135,4.7,4.7,35,0.00,,,0.00,WUHU21623XXSP,2013-04-22 18:36:00,
2013-04-22 13:41:00,76.1,46.3,30.12,SE,135,3.8,4.7,35,0.00,,,0.00,WUHU21623XXSP,2013-04-22 18:41:00,
2013-04-22 13:46:00,76.1,46.3,30.11,ESE,112,1.1,3.8,35,0.00,,,0.00,WUHU21623XXSP,2013-04-22 18:46:00,
2013-04-22 13:51:00,76.6,46.8,30.11,WNW,292,0.0,1.3,35,0.00,,,0.00,WUHU21623XXSP,2013-04-22 18:51:00,
2013-04-22 13:56:00,76.5,46.6,30.11,ESE,112,3.8,7.6,35,0.00,,,0.00,WUHU21623XXSP,2013-04-22 18:56:00,
2013-04-22 14:01:00,76.5,47.4,30.11,SSW,202,1.1,7.6,36,0.00,,,0.00,WUHU21623XXSP,2013-04-22 19:01:00,
2013-04-22 14:06:00,76.8,47.7,30.10,South,180,2.0,4.0,36,0.00,,,0.00,WUHU21623XXSP,2013-04-22 19:06:00,
2013-04-22 14:11:00,77.2,47.3,30.10,SE,135,3.4,5.6,35,0.00,,,0.00,WUHU21623XXSP,2013-04-22 19:11:00,
2013-04-22 14:16:00,77.4,47.4,30.10,SSW,202,0.0,5.6,35,0.00,,,0.00,WUHU21623XXSP,2013-04-22 19:16:00,
2013-04-22 14:21:00,77.7,47.7,30.10,SSE,157,6.0,6.0,35,0.00,,,0.00,WUHU21623XXSP,2013-04-22 19:21:00,
2013-04-22 14:26:00,77.2,45.8,30.10,South,180,0.0,6.0,33,0.00,,,0.00,WUHU21623XXSP,2013-04-22 19:26:00,
2013-04-22 14:31:00,77.4,47.4,30.10,ESE,112,5.8,6.0,35,0.00,,,0.00,WUHU21623XXSP,2013-04-22 19:31:00,
2013-04-22 14:36:00,77.9,47.6,30.09,SSW,202,4.9,6.0,35,0.00,,,0.00,WUHU21623XXSP,2013-04-22 19:36:00,
2013-04-22 14:41:00,78.3,45.9,30.09,SE,135,2.0,4.9,32,0.00,,,0.00,WUHU21623XXSP,2013-04-22 19:41:00,
2013-04-22 14:46:00,78.1,45.7,30.09,SE,135,1.1,4.7,32,0.00,,,0.00,WUHU21623XXSP,2013-04-22 19:46:00,
2013-04-22 14:51:00,77.4,45.1,30.09,SSE,157,2.0,2.0,32,0.00,,,0.00,WUHU21623XXSP,2013-04-22 19:51:00,
2013-04-22 14:56:00,77.0,45.6,30.09,ESE,112,7.8,7.8,33,0.00,,,0.00,WUHU21623XXSP,2013-04-22 19:56:00,
2013-04-22 15:01:00,77.4,46.7,30.08,ESE,112,3.1,7.8,34,0.00,,,0.00,WUHU21623XXSP,2013-04-22 20:01:00,
2013-04-22 15:06:00,77.4,45.9,30.08,SE,135,6.5,6.5,33,0.00,,,0.00,WUHU21623XXSP,2013-04-22 20:06:00,
2013-04-22 15:11:00,77.7,47.0,30.07,ESE,112,6.9,6.9,34,0.00,,,0.00,WUHU21623XXSP,2013-04-22 20:11:00,
2013-04-22 15:16:00,77.9,45.6,30.07,SW,225,0.4,6.9,32,0.00,,,0.00,WUHU21623XXSP,2013-04-22 20:16:00,
2013-04-22 15:17:00,77.5,45.3,30.07,South,180,0.0,6.9,32,0.00,,,0.00,WUHU21623XXSP,2013-04-22 20:17:00,
2013-04-22 15:41:00,77.4,45.9,30.07,ESE,112,0.7,0.7,33,0.00,,,0.00,WUHU21623XXSP,2013-04-22 20:41:00,
2013-04-22 15:46:00,77.4,45.1,30.07,South,180,2.0,2.0,32,0.00,,,0.00,WUHU21623XXSP,2013-04-22 20:46:00,
2013-04-22 15:51:00,77.0,45.6,30.06,ESE,112,4.3,4.3,33,0.00,,,0.00,WUHU21623XXSP,2013-04-22 20:51:00,
2013-04-22 15:56:00,76.6,45.4,30.06,ESE,112,4.9,6.0,33,0.00,,,0.00,WUHU21623XXSP,2013-04-22 20:56:00,
2013-04-22 16:01:00,76.1,44.8,30.05,SE,135,2.0,6.0,33,0.00,,,0.00,WUHU21623XXSP,2013-04-22 21:01:00,
2013-04-22 16:06:00,76.1,46.3,30.05,East,90,5.4,5.4,35,0.00,,,0.00,WUHU21623XXSP,2013-04-22 21:06:00,
2013-04-22 16:11:00,76.6,46.0,30.05,South,180,0.9,5.4,34,0.00,,,0.00,WUHU21623XXSP,2013-04-22 21:11:00,
2013-04-22 16:16:00,77.0,44.9,30.05,SE,135,1.3,5.6,32,0.00,,,0.00,WUHU21623XXSP,2013-04-22 21:16:00,
2013-04-22 16:21:00,76.8,44.7,30.05,SSW,202,0.0,5.6,32,0.00,,,0.00,WUHU21623XXSP,2013-04-22 21:21:00,
2013-04-22 16:26:00,76.6,43.8,30.04,SE,135,4.3,4.3,31,0.00,,,0.00,WUHU21623XXSP,2013-04-22 21:26:00,
2013-04-22 16:31:00,76.6,45.3,30.04,SW,225,0.0,4.3,33,0.00,,,0.00,WUHU21623XXSP,2013-04-22 21:31:00,
2013-04-22 16:36:00,77.4,45.9,30.04,ESE,112,2.7,2.7,33,0.00,,,0.00,WUHU21623XXSP,2013-04-22 21:36:00,
2013-04-22 16:41:00,78.3,45.9,30.04,SE,135,0.0,5.6,32,0.00,,,0.00,WUHU21623XXSP,2013-04-22 21:41:00,
2013-04-22 16:46:00,78.8,46.3,30.04,SE,135,0.0,5.6,32,0.00,,,0.00,WUHU21623XXSP,2013-04-22 21:46:00,
2013-04-22 16:51:00,79.0,45.7,30.04,SSW,202,0.0,2.5,31,0.00,,,0.00,WUHU21623XXSP,2013-04-22 21:51:00,
2013-04-22 16:56:00,77.9,44.8,30.03,East,90,0.0,4.5,31,0.00,,,0.00,WUHU21623XXSP,2013-04-22 21:56:00,
2013-04-22 17:01:00,77.9,44.8,30.04,SSW,202,2.5,6.5,31,0.00,,,0.00,WUHU21623XXSP,2013-04-22 22:01:00,
2013-04-22 17:06:00,78.1,45.0,30.04,ESE,112,2.2,6.5,31,0.00,,,0.00,WUHU21623XXSP,2013-04-22 22:06:00,
2013-04-22 17:11:00,79.0,45.7,30.03,ESE,112,4.0,4.0,31,0.00,,,0.00,WUHU21623XXSP,2013-04-22 22:11:00,
2013-04-22 17:16:00,79.7,47.1,30.03,SE,135,4.3,4.3,32,0.00,,,0.00,WUHU21623XXSP,2013-04-22 22:16:00,
2013-04-22 17:21:00,79.9,46.5,30.04,ESE,112,6.9,6.9,31,0.00,,,0.00,WUHU21623XXSP,2013-04-22 22:21:00,
2013-04-22 17:26:00,80.6,46.4,30.03,SSE,157,5.8,6.9,30,0.00,,,0.00,WUHU21623XXSP,2013-04-22 22:26:00,
2013-04-22 17:31:00,80.4,46.2,30.03,ESE,112,0.9,5.8,30,0.00,,,0.00,WUHU21623XXSP,2013-04-22 22:31:00,
2013-04-22 17:36:00,80.4,45.2,30.03,ESE,112,0.0,1.8,29,0.00,,,0.00,WUHU21623XXSP,2013-04-22 22:36:00,
2013-04-22 17:41:00,80.1,45.9,30.03,ESE,112,0.0,1.8,30,0.00,,,0.00,WUHU21623XXSP,2013-04-22 22:41:00,
2013-04-22 17:46:00,79.9,45.8,30.03,SE,135,6.0,6.0,30,0.00,,,0.00,WUHU21623XXSP,2013-04-22 22:46:00,
2013-04-22 17:51:00,79.7,45.6,30.03,SE,135,5.1,6.0,30,0.00,,,0.00,WUHU21623XXSP,2013-04-22 22:51:00,
2013-04-22 17:56:00,79.7,45.6,30.02,SE,135,0.7,5.1,30,0.00,,,0.00,WUHU21623XXSP,2013-04-22 22:56:00,
2013-04-22 18:01:00,79.5,44.4,30.02,ESE,112,5.6,5.6,29,0.00,,,0.00,WUHU21623XXSP,2013-04-22 23:01:00,
2013-04-22 18:06:00,78.8,43.7,30.02,East,90,5.4,5.6,29,0.00,,,0.00,WUHU21623XXSP,2013-04-22 23:06:00,
2013-04-22 18:11:00,78.1,44.2,30.02,ESE,112,0.0,5.4,30,0.00,,,0.00,WUHU21623XXSP,2013-04-22 23:11:00,
2013-04-22 18:16:00,77.7,43.9,30.02,SE,135,2.2,3.8,30,0.00,,,0.00,WUHU21623XXSP,2013-04-22 23:16:00,
2013-04-22 18:21:00,76.8,43.9,30.02,ESE,112,2.0,3.6,31,0.00,,,0.00,WUHU21623XXSP,2013-04-22 23:21:00,
2013-04-22 18:26:00,76.1,43.3,30.02,ESE,112,0.0,3.6,31,0.00,,,0.00,WUHU21623XXSP,2013-04-22 23:26:00,
2013-04-22 18:31:00,75.7,44.5,30.01,SE,135,4.0,4.0,33,0.00,,,0.00,WUHU21623XXSP,2013-04-22 23:31:00,
2013-04-22 18:36:00,75.6,44.3,30.01,SE,135,4.7,4.7,33,0.00,,,0.00,WUHU21623XXSP,2013-04-22 23:36:00,
2013-04-22 18:41:00,75.0,44.6,30.01,ESE,112,3.1,5.4,34,0.00,,,0.00,WUHU21623XXSP,2013-04-22 23:41:00,
2013-04-22 18:46:00,74.8,44.4,30.01,ESE,112,3.1,5.4,34,0.00,,,0.00,WUHU21623XXSP,2013-04-22 23:46:00,
2013-04-22 18:51:00,74.7,45.0,30.01,ESE,112,5.4,5.4,35,0.00,,,0.00,WUHU21623XXSP,2013-04-22 23:51:00,
2013-04-22 18:56:00,74.7,45.0,30.01,ESE,112,2.7,5.4,35,0.00,,,0.00,WUHU21623XXSP,2013-04-22 23:56:00,
2013-04-22 19:01:00,74.7,45.0,30.01,SE,135,1.6,3.8,35,0.00,,,0.00,WUHU21623XXSP,2013-04-23 00:01:00,
2013-04-22 19:06:00,74.3,44.7,30.00,ESE,112,4.0,4.0,35,0.00,,,0.00,WUHU21623XXSP,2013-04-23 00:06:00,
2013-04-22 19:11:00,73.9,44.7,30.01,ESE,112,4.7,4.7,35,0.00,,,0.00,WUHU21623XXSP,2013-04-23 00:11:00,
2013-04-22 19:16:00,73.4,44.6,30.00,SE,135,0.0,4.7,36,0.00,,,0.00,WUHU21623XXSP,2013-04-23 00:16:00,
2013-04-22 19:21:00,72.5,44.2,30.00,ESE,112,2.9,2.9,36,0.00,,,0.00,WUHU21623XXSP,2013-04-23 00:21:00,
2013-04-22 19:26:00,71.8,44.0,30.00,SE,135,0.0,2.9,37,0.00,,,0.00,WUHU21623XXSP,2013-04-23 00:26:00,
2013-04-22 19:31:00,71.1,43.3,30.01,SE,135,0.0,1.1,37,0.00,,,0.00,WUHU21623XXSP,2013-04-23 00:31:00,
2013-04-22 19:36:00,70.2,43.3,30.00,SE,135,0.9,0.9,38,0.00,,,0.00,WUHU21623XXSP,2013-04-23 00:36:00,
2013-04-22 19:41:00,69.8,43.7,30.01,SE,135,0.0,0.9,39,0.00,,,0.00,WUHU21623XXSP,2013-04-23 00:41:00,
2013-04-22 19:46:00,69.3,43.2,30.01,SE,135,0.0,0.0,39,0.00,,,0.00,WUHU21623XXSP,2013-04-23 00:46:00,
2013-04-22 19:51:00,68.5,43.3,30.01,SE,135,0.0,0.0,40,0.00,,,0.00,WUHU21623XXSP,2013-04-23 00:51:00,
2013-04-22 19:56:00,68.0,42.8,30.01,SE,135,0.0,0.0,40,0.00,,,0.00,WUHU21623XXSP,2013-04-23 00:56:00,
2013-04-22 20:01:00,67.5,42.9,30.01,SE,135,0.0,0.0,41,0.00,,,0.00,WUHU21623XXSP,2013-04-23 01:01:00,
2013-04-22 20:06:00,66.6,43.3,30.01,SE,135,0.0,0.0,43,0.00,,,0.00,WUHU21623XXSP,2013-04-23 01:06:00,
2013-04-22 20:11:00,65.8,42.6,30.02,SE,135,0.0,0.0,43,0.00,,,0.00,WUHU21623XXSP,2013-04-23 01:11:00,
2013-04-22 20:16:00,65.1,42.5,30.02,SE,135,0.0,0.0,44,0.00,,,0.00,WUHU21623XXSP,2013-04-23 01:16:00,
2013-04-22 20:21:00,64.6,42.6,30.02,SE,135,0.0,0.0,45,0.00,,,0.00,WUHU21623XXSP,2013-04-23 01:21:00,
2013-04-22 20:26:00,64.0,42.1,30.02,SE,135,0.0,0.0,45,0.00,,,0.00,WUHU21623XXSP,2013-04-23 01:26:00,
2013-04-22 20:31:00,63.3,41.5,30.02,SE,135,0.0,0.0,45,0.00,,,0.00,WUHU21623XXSP,2013-04-23 01:31:00,
2013-04-22 20:36:00,63.0,41.7,30.02,SE,135,0.0,0.0,46,0.00,,,0.00,WUHU21623XXSP,2013-04-23 01:36:00,
2013-04-22 20:41:00,62.4,41.8,30.02,SE,135,0.0,0.0,47,0.00,,,0.00,WUHU21623XXSP,2013-04-23 01:41:00,
2013-04-22 20:46:00,62.1,42.1,30.02,SE,135,0.0,0.0,48,0.00,,,0.00,WUHU21623XXSP,2013-04-23 01:46:00,
2013-04-22 20:51:00,61.7,41.7,30.02,SE,135,0.0,0.0,48,0.00,,,0.00,WUHU21623XXSP,2013-04-23 01:51:00,
2013-04-22 20:56:00,61.3,41.4,30.02,SE,135,0.0,0.0,48,0.00,,,0.00,WUHU21623XXSP,2013-04-23 01:56:00,
2013-04-22 21:01:00,61.0,41.7,30.03,SE,135,0.0,0.0,49,0.00,,,0.00,WUHU21623XXSP,2013-04-23 02:01:00,
2013-04-22 21:06:00,60.8,41.5,30.03,SE,135,0.0,0.0,49,0.00,,,0.00,WUHU21623XXSP,2013-04-23 02:06:00,
2013-04-22 21:11:00,60.4,41.2,30.03,SE,135,0.0,0.0,49,0.00,,,0.00,WUHU21623XXSP,2013-04-23 02:11:00,
2013-04-22 21:16:00,60.1,41.4,30.03,SE,135,0.0,0.0,50,0.00,,,0.00,WUHU21623XXSP,2013-04-23 02:16:00,
2013-04-22 21:21:00,60.1,41.4,30.03,SE,135,0.0,0.0,50,0.00,,,0.00,WUHU21623XXSP,2013-04-23 02:21:00,
2013-04-22 21:26:00,59.5,41.4,30.03,SE,135,0.0,0.0,51,0.00,,,0.00,WUHU21623XXSP,2013-04-23 02:26:00,
2013-04-22 21:31:00,59.4,41.3,30.03,SE,135,0.0,0.0,51,0.00,,,0.00,WUHU21623XXSP,2013-04-23 02:31:00,
2013-04-22 21:36:00,59.0,41.4,30.03,SE,135,0.0,0.0,52,0.00,,,0.00,WUHU21623XXSP,2013-04-23 02:36:00,
2013-04-22 21:41:00,59.0,41.4,30.03,SE,135,0.0,0.0,52,0.00,,,0.00,WUHU21623XXSP,2013-04-23 02:41:00,
2013-04-22 21:46:00,58.5,41.4,30.03,SE,135,0.0,0.9,53,0.00,,,0.00,WUHU21623XXSP,2013-04-23 02:46:00,
2013-04-22 21:51:00,58.5,41.4,30.03,SE,135,0.0,0.9,53,0.00,,,0.00,WUHU21623XXSP,2013-04-23 02:51:00,
2013-04-22 21:56:00,58.3,41.7,30.03,SE,135,0.7,0.7,54,0.00,,,0.00,WUHU21623XXSP,2013-04-23 02:56:00,
2013-04-22 22:01:00,58.1,42.0,30.03,SE,135,0.0,0.7,55,0.00,,,0.00,WUHU21623XXSP,2013-04-23 03:01:00,
2013-04-22 22:06:00,57.9,42.3,30.03,SE,135,0.0,0.7,56,0.00,,,0.00,WUHU21623XXSP,2013-04-23 03:06:00,
2013-04-22 22:11:00,57.9,42.3,30.03,SE,135,0.0,0.0,56,0.00,,,0.00,WUHU21623XXSP,2013-04-23 03:11:00,
2013-04-22 22:16:00,57.6,42.4,30.03,ESE,112,0.0,0.0,57,0.00,,,0.00,WUHU21623XXSP,2013-04-23 03:16:00,
2013-04-22 22:21:00,57.7,42.6,30.03,ESE,112,0.0,0.0,57,0.00,,,0.00,WUHU21623XXSP,2013-04-23 03:21:00,
2013-04-22 22:26:00,57.6,42.4,30.03,ESE,112,0.0,0.0,57,0.00,,,0.00,WUHU21623XXSP,2013-04-23 03:26:00,
2013-04-22 22:31:00,57.6,42.9,30.03,ESE,112,2.2,2.2,58,0.00,,,0.00,WUHU21623XXSP,2013-04-23 03:31:00,
2013-04-22 22:36:00,57.7,43.5,30.03,ESE,112,0.0,2.2,59,0.00,,,0.00,WUHU21623XXSP,2013-04-23 03:36:00,
2013-04-22 22:41:00,57.7,43.5,30.04,ESE,112,0.0,0.0,59,0.00,,,0.00,WUHU21623XXSP,2013-04-23 03:41:00,
2013-04-22 22:46:00,57.9,44.2,30.04,ESE,112,0.0,0.0,60,0.00,,,0.00,WUHU21623XXSP,2013-04-23 03:46:00,
2013-04-22 22:51:00,57.9,44.2,30.04,ESE,112,0.0,0.0,60,0.00,,,0.00,WUHU21623XXSP,2013-04-23 03:51:00,
2013-04-22 22:56:00,57.9,44.2,30.04,ESE,112,0.0,0.0,60,0.00,,,0.00,WUHU21623XXSP,2013-04-23 03:56:00,
2013-04-22 23:01:00,57.9,44.2,30.04,ESE,112,0.4,0.4,60,0.00,,,0.00,WUHU21623XXSP,2013-04-23 04:01:00,
2013-04-22 23:06:00,57.9,44.2,30.04,ESE,112,1.6,1.6,60,0.00,,,0.00,WUHU21623XXSP,2013-04-23 04:06:00,
2013-04-22 23:11:00,57.7,44.0,30.03,ESE,112,0.0,1.6,60,0.00,,,0.00,WUHU21623XXSP,2013-04-23 04:11:00,
2013-04-22 23:16:00,57.6,43.8,30.03,ESE,112,1.6,1.6,60,0.00,,,0.00,WUHU21623XXSP,2013-04-23 04:16:00,
2013-04-22 23:21:00,57.6,43.8,30.03,ESE,112,1.8,1.8,60,0.00,,,0.00,WUHU21623XXSP,2013-04-23 04:21:00,
2013-04-22 23:26:00,57.6,44.2,30.03,ESE,112,1.1,2.7,61,0.00,,,0.00,WUHU21623XXSP,2013-04-23 04:26:00,
2013-04-22 23:31:00,57.6,44.2,30.03,SE,135,3.4,3.4,61,0.00,,,0.00,WUHU21623XXSP,2013-04-23 04:31:00,
2013-04-22 23:36:00,57.6,44.6,30.03,ESE,112,0.0,3.4,62,0.00,,,0.00,WUHU21623XXSP,2013-04-23 04:36:00,
2013-04-22 23:41:00,57.6,44.2,30.03,ESE,112,3.4,3.4,61,0.00,,,0.00,WUHU21623XXSP,2013-04-23 04:41:00,
2013-04-22 23:46:00,57.7,44.8,30.03,ESE,112,0.0,3.4,62,0.00,,,0.00,WUHU21623XXSP,2013-04-23 04:46:00,
2013-04-22 23:51:00,57.6,44.6,30.03,ESE,112,1.6,4.5,62,0.00,,,0.00,WUHU21623XXSP,2013-04-23 04:51:00,
2013-04-22 23:56:00,57.6,44.6,30.03,ESE,112,2.0,4.5,62,0.00,,,0.00,WUHU21623XXSP,2013-04-23 04:56:00,